Forsyth, Montana
Current Conditions -  °F | °C
As of 11:53 PM on Wednesday 22 Oct 2014 (Local Time) from KMLS Reporting Station
Clear Clear  
Wind Chill: 36°   Ceiling: Unl
Heat Index: 40°   Visibility: 10mi
Dew Point: 29°   Wind: 6mph
Humidity: 65%   Direction: 170°S
Pressure: 29.92"   Gusts: NA
Location:  46.27°N, 106.68°W
Report Text: KMLS 230553Z AUTO 17005KT 10SM CLR 04/M02 A2992 RMK AO2 SLP135 T00441017 10128 20044 58000
Loading
Personal Weather Stations






























Interactive Weather Map
Tropical Storm Tracking
New forecast layout! Learn more

10-Day Weather Forecast

Advertisements
Track Severe Weather on mobile